createdAt,value
2022-10-13T00:01:31.645Z,85.56
2022-10-13T00:04:14.651Z,84.81
2022-10-13T00:06:57.795Z,85.19
2022-10-13T00:09:40.763Z,84.73
2022-10-13T00:12:23.767Z,83.57
2022-10-13T00:15:09.663Z,84.40
2022-10-13T00:17:53.091Z,84.03
2022-10-13T00:20:36.739Z,83.97
2022-10-13T00:23:19.837Z,84.66
2022-10-13T00:26:05.190Z,84.44
2022-10-13T00:28:52.217Z,84.63
2022-10-13T00:31:37.413Z,84.23
2022-10-13T00:34:20.427Z,84.41
2022-10-13T00:37:03.511Z,84.08
2022-10-13T00:39:46.574Z,84.00
2022-10-13T00:42:29.668Z,84.10
2022-10-13T00:45:23.318Z,84.30
2022-10-13T00:48:07.882Z,84.10
2022-10-13T00:50:51.866Z,84.46
2022-10-13T00:53:38.111Z,84.57
2022-10-13T00:56:24.957Z,84.94
2022-10-13T00:59:22.982Z,85.36
2022-10-13T01:02:06.531Z,86.32
2022-10-13T01:04:52.671Z,87.14
2022-10-13T01:07:37.130Z,87.97
2022-10-13T01:10:30.871Z,88.05
2022-10-13T01:13:24.638Z,88.82
2022-10-13T01:16:14.349Z,88.98
2022-10-13T01:19:06.323Z,88.39
2022-10-13T01:22:05.667Z,88.11
2022-10-13T01:25:01.267Z,88.62
2022-10-13T01:28:02.921Z,88.70
2022-10-13T01:30:51.901Z,88.89
2022-10-13T01:33:44.362Z,88.81
2022-10-13T01:36:31.973Z,89.39
2022-10-13T01:39:24.519Z,89.19
2022-10-13T01:42:14.727Z,89.93
2022-10-13T01:45:02.144Z,90.49
2022-10-13T01:47:48.141Z,91.48
2022-10-13T01:50:32.135Z,91.92
2022-10-13T01:53:18.083Z,92.18
2022-10-13T01:56:02.181Z,92.12
2022-10-13T01:58:46.855Z,93.28
2022-10-13T02:01:44.469Z,93.58
2022-10-13T02:04:38.751Z,93.29
2022-10-13T02:07:29.140Z,93.20
2022-10-13T02:10:18.927Z,93.16
2022-10-13T02:13:05.819Z,92.64
2022-10-13T02:15:53.172Z,91.84
2022-10-13T02:18:37.185Z,91.99
2022-10-13T02:21:21.620Z,91.82
2022-10-13T02:24:05.565Z,91.25
2022-10-13T02:26:49.377Z,90.99
2022-10-13T02:29:32.458Z,92.23
2022-10-13T02:32:15.916Z,92.40
2022-10-13T02:34:59.203Z,91.90
2022-10-13T02:37:43.708Z,91.65
2022-10-13T02:40:26.919Z,92.33
2022-10-13T02:43:09.925Z,92.38
2022-10-13T02:45:52.975Z,93.02
2022-10-13T02:48:36.039Z,92.90
2022-10-13T02:51:19.109Z,92.71
2022-10-13T02:54:03.575Z,93.72
2022-10-13T02:56:46.767Z,93.37
2022-10-13T02:59:30.647Z,92.72
2022-10-13T03:02:13.730Z,93.21
2022-10-13T03:04:56.951Z,93.15
2022-10-13T03:07:40.164Z,92.69
2022-10-13T03:10:27.559Z,93.46
2022-10-13T03:13:10.758Z,94.31
2022-10-13T03:15:53.988Z,93.71
2022-10-13T03:18:37.098Z,93.81
2022-10-13T03:21:20.110Z,93.71
2022-10-13T03:24:05.690Z,93.86
2022-10-13T03:26:50.156Z,93.70
2022-10-13T03:29:33.878Z,93.63
2022-10-13T03:32:17.226Z,92.75
2022-10-13T03:35:00.690Z,93.30
2022-10-13T03:37:43.813Z,93.38
2022-10-13T03:40:28.614Z,93.50
2022-10-13T03:43:13.092Z,93.43
2022-10-13T03:45:57.034Z,93.17
2022-10-13T03:48:42.372Z,93.51
2022-10-13T03:51:26.411Z,93.59
2022-10-13T03:54:12.249Z,94.26
2022-10-13T03:56:55.361Z,94.33
2022-10-13T03:59:40.725Z,94.86
2022-10-13T04:02:23.834Z,94.15
2022-10-13T04:05:07.568Z,94.31
2022-10-13T04:07:50.608Z,93.83
2022-10-13T04:10:34.160Z,93.94
2022-10-13T04:13:17.256Z,94.09
2022-10-13T04:16:05.278Z,93.73
2022-10-13T04:18:52.858Z,93.87
2022-10-13T04:21:36.744Z,94.13
2022-10-13T04:24:19.809Z,94.58
2022-10-13T04:27:02.782Z,94.40
2022-10-13T04:29:45.925Z,94.48
2022-10-13T04:32:30.366Z,95.06
2022-10-13T04:35:13.415Z,95.37
2022-10-13T04:37:57.568Z,95.78
2022-10-13T04:40:40.777Z,96.23
2022-10-13T04:43:23.748Z,95.44
2022-10-13T04:46:08.377Z,93.84
2022-10-13T04:48:53.332Z,94.08
2022-10-13T04:51:36.393Z,93.63
2022-10-13T04:54:19.459Z,93.52
2022-10-13T04:57:02.490Z,92.93
2022-10-13T04:59:45.581Z,93.28
2022-10-13T05:02:29.404Z,92.38
2022-10-13T05:05:13.830Z,91.56
2022-10-13T05:07:56.837Z,91.87
2022-10-13T05:10:39.842Z,90.67
2022-10-13T05:13:22.886Z,89.89
2022-10-13T05:16:10.129Z,89.68
2022-10-13T05:18:55.038Z,88.24
2022-10-13T05:21:40.460Z,87.40
2022-10-13T05:24:31.231Z,86.75
2022-10-13T05:27:15.004Z,86.01
2022-10-13T05:29:57.943Z,86.08
2022-10-13T05:32:40.910Z,85.69
2022-10-13T05:35:23.910Z,84.50
2022-10-13T05:38:08.318Z,84.46
2022-10-13T05:40:51.366Z,83.10
2022-10-13T05:43:35.006Z,83.69
2022-10-13T05:46:18.030Z,82.87
2022-10-13T05:49:01.158Z,81.41
2022-10-13T05:51:47.144Z,79.83
2022-10-13T05:54:35.226Z,78.69
2022-10-13T05:57:22.144Z,80.04
2022-10-13T06:00:07.794Z,78.57
2022-10-13T06:02:54.318Z,75.75
2022-10-13T06:05:38.210Z,73.73
2022-10-13T06:08:21.218Z,72.87
2022-10-13T06:11:06.886Z,71.56
2022-10-13T06:13:49.887Z,70.86
2022-10-13T06:16:33.158Z,69.71
2022-10-13T06:19:16.262Z,67.58
2022-10-13T06:22:03.369Z,62.28
2022-10-13T06:24:46.839Z,55.88
2022-10-13T06:27:32.408Z,51.21
2022-10-13T06:30:15.466Z,50.49
2022-10-13T06:32:58.506Z,45.54
2022-10-13T06:35:41.570Z,41.94
2022-10-13T06:38:24.546Z,41.13
2022-10-13T06:41:07.732Z,38.53
2022-10-13T06:43:52.137Z,36.79
2022-10-13T06:46:35.196Z,40.95
2022-10-13T06:49:18.318Z,39.92
2022-10-13T06:52:01.384Z,38.72
2022-10-13T06:54:44.358Z,42.75
2022-10-13T06:57:27.430Z,42.80
2022-10-13T07:00:12.914Z,42.48
2022-10-13T07:02:55.891Z,41.53
2022-10-13T07:05:38.992Z,37.63
2022-10-13T07:08:22.127Z,38.12
2022-10-13T07:11:15.197Z,38.15
2022-10-13T07:13:59.034Z,34.66
2022-10-13T07:16:43.510Z,33.26
2022-10-13T07:19:26.498Z,33.33
2022-10-13T07:22:09.521Z,30.65
2022-10-13T07:24:52.547Z,29.30
2022-10-13T07:27:35.538Z,29.59
2022-10-13T07:30:18.662Z,30.26
2022-10-13T07:33:03.168Z,27.78
2022-10-13T07:35:46.202Z,25.63
2022-10-13T07:38:29.486Z,26.40
2022-10-13T07:41:13.359Z,27.67
2022-10-13T07:43:57.128Z,29.30
2022-10-13T07:46:40.257Z,27.22
2022-10-13T07:49:25.112Z,27.42
2022-10-13T07:52:08.192Z,26.75
2022-10-13T07:54:51.483Z,24.38
2022-10-13T07:57:35.031Z,22.05
2022-10-13T08:00:18.573Z,25.48
2022-10-13T08:03:01.614Z,26.87
2022-10-13T08:05:46.010Z,27.07
2022-10-13T08:08:29.957Z,27.96
2022-10-13T08:11:16.744Z,27.06
2022-10-13T08:14:01.689Z,25.86
2022-10-13T08:16:48.696Z,30.13
2022-10-13T08:19:34.471Z,27.26
2022-10-13T08:22:19.298Z,23.29
2022-10-13T08:25:02.576Z,24.39
2022-10-13T08:27:51.091Z,23.17
2022-10-13T08:30:35.264Z,23.89
2022-10-13T08:33:18.395Z,24.58
2022-10-13T08:36:01.435Z,20.99
2022-10-13T08:38:45.882Z,20.88
2022-10-13T08:41:32.776Z,23.27
2022-10-13T08:47:35.090Z,24.79
2022-10-13T08:50:20.567Z,29.72
2022-10-13T08:53:08.596Z,26.68
2022-10-13T08:55:57.171Z,27.61
2022-10-13T08:58:43.028Z,24.30
2022-10-13T09:01:30.359Z,24.08
2022-10-13T09:04:27.210Z,24.35
2022-10-13T09:07:16.116Z,24.86
2022-10-13T09:09:59.523Z,22.43
2022-10-13T09:12:43.950Z,23.10
2022-10-13T09:15:27.016Z,22.50
2022-10-13T09:18:12.794Z,22.50
2022-10-13T09:21:11.279Z,21.32
2022-10-13T09:23:55.190Z,21.83
2022-10-13T09:26:40.238Z,26.70
2022-10-13T09:29:27.529Z,25.98
2022-10-13T09:32:19.515Z,26.85
2022-10-13T09:35:21.818Z,25.12
2022-10-13T09:38:05.795Z,21.29
2022-10-13T09:41:01.778Z,19.61
2022-10-13T09:44:00.724Z,20.61
2022-10-13T09:46:53.955Z,20.18
2022-10-13T09:49:39.790Z,20.13
2022-10-13T09:52:25.246Z,18.88
2022-10-13T09:55:32.331Z,18.43
2022-10-13T09:58:20.958Z,16.77
2022-10-13T10:01:04.654Z,17.43
2022-10-13T10:03:50.632Z,18.86
2022-10-13T10:06:35.111Z,16.66
2022-10-13T10:09:33.198Z,20.42
2022-10-13T10:12:21.845Z,20.36
2022-10-13T10:15:21.591Z,19.36
2022-10-13T10:18:08.954Z,24.44
2022-10-13T10:21:10.882Z,23.93
2022-10-13T10:23:59.779Z,22.52
2022-10-13T10:26:52.358Z,22.74
2022-10-13T10:29:47.332Z,24.52
2022-10-13T10:32:41.347Z,25.28
2022-10-13T10:35:36.150Z,26.33
2022-10-13T10:38:35.539Z,27.06
2022-10-13T10:41:34.875Z,26.65
2022-10-13T10:44:22.513Z,28.89
2022-10-13T10:47:12.542Z,26.45
2022-10-13T10:50:02.592Z,23.06
2022-10-13T10:52:55.262Z,20.77
2022-10-13T10:55:51.114Z,17.83
2022-10-13T10:58:43.235Z,17.31
2022-10-13T11:01:34.399Z,17.81
2022-10-13T11:04:36.422Z,15.87
2022-10-13T11:07:52.722Z,17.62
2022-10-13T11:10:35.730Z,17.57
2022-10-13T11:13:22.137Z,17.29
2022-10-13T11:16:28.799Z,20.24
2022-10-13T11:19:30.721Z,23.88
2022-10-13T11:22:15.463Z,23.41
2022-10-13T11:25:17.535Z,24.70
2022-10-13T11:28:00.607Z,25.85
2022-10-13T11:30:50.369Z,27.12
2022-10-13T11:33:52.394Z,27.23
2022-10-13T11:36:45.406Z,28.24
2022-10-13T11:40:06.914Z,28.91
2022-10-13T11:43:28.313Z,30.77
2022-10-13T11:46:36.978Z,33.05
2022-10-13T11:49:39.510Z,33.99
2022-10-13T11:52:54.518Z,34.27
2022-10-13T11:55:46.696Z,35.49
2022-10-13T11:58:31.901Z,35.30
2022-10-13T12:01:16.937Z,35.36
2022-10-13T12:04:15.018Z,35.35
2022-10-13T12:07:01.877Z,35.51
2022-10-13T12:09:53.165Z,36.07
2022-10-13T12:12:36.237Z,35.07
2022-10-13T12:15:33.827Z,36.22
2022-10-13T12:18:23.580Z,36.52
2022-10-13T12:21:13.214Z,37.79
2022-10-13T12:24:08.898Z,37.68
2022-10-13T12:26:52.345Z,38.47
2022-10-13T12:29:37.477Z,38.68
2022-10-13T12:32:22.070Z,39.64
2022-10-13T12:35:17.181Z,39.01
2022-10-13T12:38:03.765Z,39.18
2022-10-13T12:40:47.262Z,39.31
2022-10-13T12:43:30.329Z,38.71
2022-10-13T12:46:13.374Z,38.21
2022-10-13T12:49:05.675Z,38.01
2022-10-13T12:51:51.853Z,38.30
2022-10-13T12:54:39.850Z,38.58
2022-10-13T12:57:35.288Z,38.84
2022-10-13T13:00:27.022Z,39.12
2022-10-13T13:03:24.322Z,40.79
2022-10-13T13:06:35.035Z,40.42
2022-10-13T13:09:24.486Z,40.60
2022-10-13T13:12:30.677Z,40.25
2022-10-13T13:15:35.752Z,40.63
2022-10-13T13:18:41.830Z,40.99
2022-10-13T13:21:24.842Z,40.64
2022-10-13T13:24:21.698Z,41.85
2022-10-13T13:27:24.868Z,41.41
2022-10-13T13:30:14.071Z,41.57
2022-10-13T13:32:57.073Z,41.90
2022-10-13T13:35:40.123Z,42.65
2022-10-13T13:38:23.271Z,42.29
2022-10-13T13:41:06.814Z,42.40
2022-10-13T13:43:50.424Z,41.73
2022-10-13T13:46:35.240Z,41.07
2022-10-13T13:49:18.272Z,41.33
2022-10-13T13:52:01.906Z,41.21
2022-10-13T13:54:45.153Z,42.13
2022-10-13T13:57:28.143Z,42.17
2022-10-13T14:00:12.820Z,41.88
2022-10-13T14:02:57.556Z,42.43
2022-10-13T14:05:41.084Z,43.23
2022-10-13T14:08:24.156Z,44.18
2022-10-13T14:11:07.859Z,43.68
2022-10-13T14:13:50.895Z,43.67
2022-10-13T14:16:33.891Z,43.78
2022-10-13T14:19:18.504Z,44.49
2022-10-13T14:22:04.718Z,45.47
2022-10-13T14:24:51.624Z,44.72
2022-10-13T14:27:34.910Z,45.84
2022-10-13T14:30:18.162Z,45.96
2022-10-13T14:33:01.939Z,45.73
2022-10-13T14:35:47.031Z,45.22
2022-10-13T14:38:30.205Z,46.08
2022-10-13T14:41:13.319Z,46.38
2022-10-13T14:43:57.488Z,47.54
2022-10-13T14:46:40.548Z,48.87
2022-10-13T14:49:23.586Z,49.14
2022-10-13T14:52:08.827Z,49.80
2022-10-13T14:54:51.888Z,49.62
2022-10-13T14:57:34.883Z,50.41
2022-10-13T15:00:18.056Z,49.75
2022-10-13T15:03:01.065Z,50.22
2022-10-13T15:05:44.180Z,50.75
2022-10-13T15:08:28.532Z,50.48
2022-10-13T15:11:12.616Z,51.05
2022-10-13T15:13:56.333Z,49.98
2022-10-13T15:16:39.457Z,50.10
2022-10-13T15:19:22.481Z,51.60
2022-10-13T15:22:05.574Z,50.97
2022-10-13T15:24:50.004Z,52.01
2022-10-13T15:27:33.732Z,52.04
2022-10-13T15:30:19.153Z,53.48
2022-10-13T15:33:02.360Z,53.21
2022-10-13T15:35:45.517Z,53.13
2022-10-13T15:38:28.985Z,54.11
2022-10-13T15:41:14.139Z,54.54
2022-10-13T15:43:57.180Z,55.01
2022-10-13T15:46:59.230Z,55.16
2022-10-13T15:49:43.520Z,55.87
2022-10-13T15:52:30.865Z,56.65
2022-10-13T15:55:16.839Z,57.32
2022-10-13T15:58:01.245Z,57.22
2022-10-13T16:00:44.849Z,56.90
2022-10-13T16:03:29.915Z,56.54
2022-10-13T16:06:14.398Z,56.51
2022-10-13T16:08:57.417Z,54.97
2022-10-13T16:11:40.476Z,55.13
2022-10-13T16:14:24.953Z,55.43
2022-10-13T16:17:07.948Z,55.61
2022-10-13T16:19:51.111Z,55.57
2022-10-13T16:22:34.315Z,55.83
2022-10-13T16:25:17.463Z,56.71
2022-10-13T16:28:00.878Z,56.94
2022-10-13T16:30:45.279Z,57.39
2022-10-13T16:33:28.253Z,57.54
2022-10-13T16:36:13.391Z,57.75
2022-10-13T16:38:56.419Z,58.21
2022-10-13T16:41:39.765Z,58.73
2022-10-13T16:44:22.790Z,58.69
2022-10-13T16:47:07.187Z,59.20
2022-10-13T16:49:50.184Z,59.33
2022-10-13T16:55:21.600Z,60.01
2022-10-13T16:58:04.895Z,60.07
2022-10-13T17:00:48.600Z,59.69
2022-10-13T17:03:33.277Z,59.26
2022-10-13T17:06:16.428Z,59.52
2022-10-13T17:09:02.973Z,60.01
2022-10-13T17:11:46.536Z,59.98
2022-10-13T17:14:29.659Z,60.53
2022-10-13T17:17:14.285Z,60.49
2022-10-13T17:20:01.780Z,59.76
2022-10-13T17:22:45.051Z,60.24
2022-10-13T17:25:28.145Z,60.22
2022-10-13T17:28:11.315Z,60.23
2022-10-13T17:30:59.531Z,61.00
2022-10-13T17:33:43.984Z,61.71
2022-10-13T17:36:31.762Z,62.28
2022-10-13T17:39:16.488Z,62.94
2022-10-13T17:41:59.551Z,62.84
2022-10-13T17:44:42.816Z,63.79
2022-10-13T17:47:26.121Z,64.15
2022-10-13T17:50:09.868Z,62.82
2022-10-13T17:52:55.133Z,62.90
2022-10-13T17:55:39.200Z,61.80
2022-10-13T17:58:22.214Z,61.59
2022-10-13T18:01:13.310Z,61.72
2022-10-13T18:03:58.420Z,62.19
2022-10-13T18:06:44.111Z,62.47
2022-10-13T18:09:28.937Z,62.88
2022-10-13T18:12:12.265Z,62.67
2022-10-13T18:14:55.377Z,62.07
2022-10-13T18:17:38.364Z,61.80
2022-10-13T18:20:21.484Z,62.74
2022-10-13T18:23:04.676Z,61.92
2022-10-13T18:25:50.107Z,62.63
2022-10-13T18:28:40.091Z,61.51
2022-10-13T18:31:24.961Z,61.74
2022-10-13T18:34:09.698Z,61.51
2022-10-13T18:36:55.126Z,61.95
2022-10-13T18:39:38.208Z,61.76
2022-10-13T18:42:23.248Z,62.03
2022-10-13T18:45:06.841Z,61.78
2022-10-13T18:47:52.060Z,61.74
2022-10-13T18:50:37.115Z,61.16
2022-10-13T18:53:20.324Z,61.37
2022-10-13T18:56:05.147Z,61.32
2022-10-13T18:58:50.219Z,61.49
2022-10-13T19:01:35.550Z,62.17
2022-10-13T19:04:18.651Z,62.80
2022-10-13T19:07:01.756Z,62.50
2022-10-13T19:09:44.836Z,63.03
2022-10-13T19:12:27.942Z,63.24
2022-10-13T19:15:12.574Z,64.13
2022-10-13T19:17:55.689Z,63.42
2022-10-13T19:20:38.786Z,62.54
2022-10-13T19:23:22.694Z,64.10
2022-10-13T19:26:14.755Z,63.20
2022-10-13T19:29:00.781Z,63.08
2022-10-13T19:31:45.583Z,62.75
2022-10-13T19:34:28.697Z,62.27
2022-10-13T19:37:11.715Z,61.83
2022-10-13T19:39:54.769Z,62.02
2022-10-13T19:42:39.168Z,62.01
2022-10-13T19:45:24.154Z,62.56
2022-10-13T19:48:08.816Z,62.12
2022-10-13T19:50:52.251Z,62.67
2022-10-13T19:53:37.938Z,62.22
2022-10-13T19:56:23.928Z,63.09
2022-10-13T19:59:07.098Z,63.88
2022-10-13T20:01:50.195Z,63.67
2022-10-13T20:04:34.740Z,64.05
2022-10-13T20:07:18.331Z,64.18
2022-10-13T20:10:01.521Z,64.59
2022-10-13T20:12:44.665Z,64.90
2022-10-13T20:15:27.746Z,65.03
2022-10-13T20:18:13.190Z,65.61
2022-10-13T20:20:57.682Z,64.70
2022-10-13T20:23:42.182Z,64.52
2022-10-13T20:26:25.443Z,62.73
2022-10-13T20:29:09.114Z,64.23
2022-10-13T20:31:52.342Z,64.54
2022-10-13T20:34:35.704Z,64.31
2022-10-13T20:37:20.394Z,64.83
2022-10-13T20:40:03.583Z,65.79
2022-10-13T20:42:51.816Z,66.27
2022-10-13T20:45:34.804Z,65.52
2022-10-13T20:48:17.850Z,65.49
2022-10-13T20:51:01.707Z,65.62
2022-10-13T20:53:47.306Z,67.60
2022-10-13T20:56:30.314Z,67.10
2022-10-13T20:59:14.709Z,67.02
2022-10-13T21:01:57.902Z,67.19
2022-10-13T21:04:41.013Z,66.61
2022-10-13T21:07:24.186Z,67.84
2022-10-13T21:10:09.552Z,68.26
2022-10-13T21:12:52.559Z,68.78
2022-10-13T21:15:37.165Z,69.19
2022-10-13T21:18:20.256Z,69.61
2022-10-13T21:21:07.282Z,69.23
2022-10-13T21:23:51.514Z,69.80
2022-10-13T21:26:36.541Z,70.08
2022-10-13T21:29:19.608Z,70.59
2022-10-13T21:32:02.708Z,70.64
2022-10-13T21:34:45.703Z,70.44
2022-10-13T21:37:28.806Z,71.14
2022-10-13T21:40:12.230Z,71.50
2022-10-13T21:42:56.628Z,70.76
2022-10-13T21:45:39.628Z,70.08
2022-10-13T21:48:23.402Z,71.39
2022-10-13T21:51:17.015Z,70.08
2022-10-13T21:54:01.900Z,70.17
2022-10-13T21:56:45.198Z,70.56
2022-10-13T21:59:29.882Z,70.16
2022-10-13T22:02:13.198Z,68.83
2022-10-13T22:04:56.272Z,69.39
2022-10-13T22:07:39.349Z,68.95
2022-10-13T22:10:22.460Z,68.87
2022-10-13T22:13:05.580Z,68.29
2022-10-13T22:15:50.128Z,67.50
2022-10-13T22:18:33.288Z,67.69
2022-10-13T22:21:19.027Z,67.65
2022-10-13T22:24:04.015Z,68.26
2022-10-13T22:26:48.799Z,68.03
2022-10-13T22:29:31.848Z,67.79
2022-10-13T22:32:16.354Z,67.80
2022-10-13T22:34:59.428Z,68.37
2022-10-13T22:37:42.490Z,68.81
2022-10-13T22:40:25.521Z,68.86
2022-10-13T22:43:08.983Z,68.29
2022-10-13T22:45:52.712Z,66.41
2022-10-13T22:48:40.715Z,66.89
2022-10-13T22:51:27.378Z,67.07
2022-10-13T22:54:11.005Z,66.21
2022-10-13T22:56:54.070Z,62.95
2022-10-13T22:59:37.319Z,62.56
2022-10-13T23:02:20.348Z,60.76
2022-10-13T23:05:05.079Z,59.46
2022-10-13T23:07:48.142Z,58.43
2022-10-13T23:10:31.298Z,56.86
2022-10-13T23:13:14.306Z,56.08
2022-10-13T23:16:02.246Z,56.41
2022-10-13T23:18:45.296Z,56.05
2022-10-13T23:21:31.252Z,56.72
2022-10-13T23:24:14.372Z,55.93
2022-10-13T23:27:00.544Z,56.19
2022-10-13T23:29:43.603Z,55.69
2022-10-13T23:32:27.100Z,56.08
2022-10-13T23:35:10.426Z,56.70
2022-10-13T23:37:55.002Z,56.54
2022-10-13T23:40:38.054Z,55.91
2022-10-13T23:43:21.393Z,56.18
2022-10-13T23:46:04.961Z,57.33
2022-10-13T23:48:48.496Z,58.01
2022-10-13T23:51:31.913Z,58.51
2022-10-13T23:54:16.417Z,59.30
2022-10-13T23:56:59.550Z,58.42
2022-10-13T23:59:42.613Z,58.50
